createdAt,value
2022-11-27T00:00:21.992Z,0.00
2022-11-27T00:01:22.876Z,0.00
2022-11-27T00:02:23.814Z,0.00
2022-11-27T00:03:24.826Z,0.00
2022-11-27T00:04:25.258Z,0.00
2022-11-27T00:05:26.138Z,0.00
2022-11-27T00:06:27.023Z,0.00
2022-11-27T00:07:27.925Z,0.00
2022-11-27T00:08:28.780Z,0.00
2022-11-27T00:09:29.664Z,0.00
2022-11-27T00:10:30.547Z,0.00
2022-11-27T00:11:31.444Z,0.00
2022-11-27T00:12:32.322Z,0.00
2022-11-27T00:13:33.227Z,0.00
2022-11-27T00:14:34.089Z,0.00
2022-11-27T00:15:35.018Z,0.00
2022-11-27T00:16:35.866Z,0.00
2022-11-27T00:17:36.749Z,0.00
2022-11-27T00:18:37.633Z,0.00
2022-11-27T00:19:38.946Z,0.00
2022-11-27T00:20:39.024Z,0.00
2022-11-27T00:21:39.914Z,0.00
2022-11-27T00:22:40.796Z,0.00
2022-11-27T00:23:41.682Z,0.00
2022-11-27T00:24:42.654Z,0.00
2022-11-27T00:25:43.477Z,0.00
2022-11-27T00:26:44.370Z,0.00
2022-11-27T00:27:45.252Z,0.00
2022-11-27T00:28:46.153Z,0.00
2022-11-27T00:29:47.010Z,0.00
2022-11-27T00:30:47.920Z,0.00
2022-11-27T00:31:48.775Z,0.00
2022-11-27T00:32:49.659Z,0.00
2022-11-27T00:33:50.544Z,0.00
2022-11-27T00:34:51.427Z,0.00
2022-11-27T00:35:52.309Z,0.00
2022-11-27T00:36:53.200Z,0.00
2022-11-27T00:37:54.086Z,0.00
2022-11-27T00:38:55.092Z,0.00
2022-11-27T00:39:55.913Z,0.00
2022-11-27T00:40:56.796Z,0.00
2022-11-27T00:41:57.691Z,0.00
2022-11-27T00:42:58.572Z,0.00
2022-11-27T00:43:59.482Z,0.00
2022-11-27T00:45:00.331Z,0.00
2022-11-27T00:46:01.280Z,0.00
2022-11-27T00:47:02.160Z,0.00
2022-11-27T00:48:03.021Z,0.00
2022-11-27T00:49:03.894Z,0.00
2022-11-27T00:50:04.777Z,0.00
2022-11-27T00:51:05.672Z,0.00
2022-11-27T00:52:06.589Z,0.00
2022-11-27T00:53:07.481Z,0.00
2022-11-27T00:54:08.380Z,0.00
2022-11-27T00:55:09.253Z,0.00
2022-11-27T00:56:10.137Z,0.00
2022-11-27T00:57:11.021Z,0.00
2022-11-27T00:58:11.902Z,0.00
2022-11-27T00:59:12.802Z,0.00
2022-11-27T01:00:13.659Z,0.00
2022-11-27T01:01:14.622Z,0.00
2022-11-27T01:02:15.551Z,0.00
2022-11-27T01:03:16.512Z,0.00
2022-11-27T01:04:16.910Z,0.00
2022-11-27T01:05:17.784Z,0.00
2022-11-27T01:06:18.667Z,0.00
2022-11-27T01:07:19.633Z,0.00
2022-11-27T01:08:20.482Z,0.00
2022-11-27T01:09:21.357Z,0.00
2022-11-27T01:10:22.240Z,0.00
2022-11-27T01:11:23.125Z,0.00
2022-11-27T01:12:24.016Z,0.00
2022-11-27T01:13:24.889Z,0.00
2022-11-27T01:14:25.792Z,0.00
2022-11-27T01:15:26.655Z,0.00
2022-11-27T01:16:27.606Z,0.00
2022-11-27T01:17:28.460Z,0.00
2022-11-27T01:18:29.343Z,0.00
2022-11-27T01:19:30.244Z,0.00
2022-11-27T01:20:31.150Z,0.00
2022-11-27T01:21:32.021Z,0.00
2022-11-27T01:22:32.918Z,0.00
2022-11-27T01:23:33.798Z,0.00
2022-11-27T01:24:34.680Z,0.00
2022-11-27T01:25:35.556Z,0.00
2022-11-27T01:26:36.439Z,0.00
2022-11-27T01:27:37.322Z,0.00
2022-11-27T01:28:38.204Z,0.00
2022-11-27T01:29:39.099Z,0.00
2022-11-27T01:30:39.960Z,0.00
2022-11-27T01:31:40.855Z,0.00
2022-11-27T01:32:41.727Z,0.00
2022-11-27T01:33:42.602Z,0.00
2022-11-27T01:34:43.484Z,0.00
2022-11-27T01:35:44.368Z,0.00
2022-11-27T01:36:45.252Z,0.00
2022-11-27T01:37:46.135Z,0.00
2022-11-27T01:38:47.020Z,0.00
2022-11-27T01:39:47.893Z,0.00
2022-11-27T01:40:48.773Z,0.00
2022-11-27T01:41:49.649Z,0.00
2022-11-27T01:42:50.540Z,0.00
2022-11-27T01:43:51.422Z,0.00
2022-11-27T01:44:52.331Z,0.00
2022-11-27T01:45:53.192Z,0.00
2022-11-27T01:46:54.113Z,0.00
2022-11-27T01:47:54.956Z,0.00
2022-11-27T01:48:55.851Z,0.00
2022-11-27T01:49:56.716Z,0.00
2022-11-27T01:50:57.597Z,0.00
2022-11-27T01:51:58.476Z,0.00
2022-11-27T01:52:59.363Z,0.00
2022-11-27T01:54:00.240Z,0.00
2022-11-27T01:55:01.134Z,0.00
2022-11-27T01:56:02.040Z,0.00
2022-11-27T01:57:02.939Z,0.00
2022-11-27T01:58:03.829Z,0.00
2022-11-27T01:59:04.713Z,0.00
2022-11-27T02:00:05.639Z,0.00
2022-11-27T02:01:06.513Z,0.00
2022-11-27T02:02:07.542Z,0.00
2022-11-27T02:03:08.464Z,0.00
2022-11-27T02:04:09.303Z,0.00
2022-11-27T02:05:10.187Z,0.00
2022-11-27T02:06:11.069Z,0.00
2022-11-27T02:07:12.024Z,0.00
2022-11-27T02:08:12.917Z,0.00
2022-11-27T02:09:13.801Z,0.00
2022-11-27T02:10:14.689Z,0.00
2022-11-27T02:11:15.573Z,0.00
2022-11-27T02:12:16.478Z,0.00
2022-11-27T02:13:17.395Z,0.00
2022-11-27T02:14:18.283Z,0.00
2022-11-27T02:15:19.184Z,0.00
2022-11-27T02:16:20.124Z,0.00
2022-11-27T02:17:20.992Z,0.00
2022-11-27T02:18:21.894Z,0.00
2022-11-27T02:19:22.799Z,0.00
2022-11-27T02:20:23.707Z,0.00
2022-11-27T02:21:24.601Z,0.00
2022-11-27T02:22:25.508Z,0.00
2022-11-27T02:23:26.420Z,0.00
2022-11-27T02:24:27.312Z,0.00
2022-11-27T02:25:28.662Z,0.00
2022-11-27T02:26:29.080Z,0.00
2022-11-27T02:27:29.986Z,0.00
2022-11-27T02:28:30.844Z,0.00
2022-11-27T02:29:31.736Z,0.00
2022-11-27T02:30:32.620Z,0.00
2022-11-27T02:31:33.579Z,0.00
2022-11-27T02:32:34.415Z,0.00
2022-11-27T02:33:35.300Z,0.00
2022-11-27T02:34:36.181Z,0.00
2022-11-27T02:35:37.055Z,0.00
2022-11-27T02:36:37.937Z,0.00
2022-11-27T02:37:38.812Z,0.00
2022-11-27T02:38:39.703Z,0.00
2022-11-27T02:39:40.578Z,0.00
2022-11-27T02:40:41.462Z,0.00
2022-11-27T02:41:42.345Z,0.00
2022-11-27T02:42:43.347Z,0.00
2022-11-27T02:43:44.163Z,0.00
2022-11-27T02:44:45.043Z,0.00
2022-11-27T02:45:45.928Z,0.00
2022-11-27T02:46:46.917Z,0.00
2022-11-27T02:47:47.786Z,0.00
2022-11-27T02:48:48.678Z,0.00
2022-11-27T02:49:49.553Z,0.00
2022-11-27T02:50:50.440Z,0.00
2022-11-27T02:51:51.320Z,0.00
2022-11-27T02:52:52.204Z,0.00
2022-11-27T02:53:53.087Z,0.00
2022-11-27T02:54:53.968Z,0.00
2022-11-27T02:55:54.853Z,0.00
2022-11-27T02:56:55.736Z,0.00
2022-11-27T02:57:56.728Z,0.00
2022-11-27T02:58:57.543Z,0.00
2022-11-27T02:59:58.427Z,0.00
2022-11-27T03:00:59.310Z,0.00
2022-11-27T03:02:00.249Z,0.00
2022-11-27T03:03:01.200Z,0.00
2022-11-27T03:04:02.061Z,0.00
2022-11-27T03:05:02.943Z,0.00
2022-11-27T03:06:03.828Z,0.00
2022-11-27T03:07:04.712Z,0.00
2022-11-27T03:08:05.585Z,0.00
2022-11-27T03:09:06.483Z,0.00
2022-11-27T03:10:07.362Z,0.00
2022-11-27T03:11:08.250Z,0.00
2022-11-27T03:12:09.121Z,0.00
2022-11-27T03:13:10.116Z,0.00
2022-11-27T03:14:10.935Z,0.00
2022-11-27T03:15:11.822Z,0.00
2022-11-27T03:16:12.737Z,0.00
2022-11-27T03:17:13.586Z,0.00
2022-11-27T03:18:14.470Z,0.00
2022-11-27T03:19:15.363Z,0.00
2022-11-27T03:20:16.252Z,0.00
2022-11-27T03:21:17.150Z,0.00
2022-11-27T03:22:18.026Z,0.00
2022-11-27T03:23:18.925Z,0.00
2022-11-27T03:24:19.829Z,0.00
2022-11-27T03:25:20.727Z,0.00
2022-11-27T03:26:21.594Z,0.00
2022-11-27T03:27:22.473Z,0.00
2022-11-27T03:28:23.467Z,0.00
2022-11-27T03:29:24.277Z,0.00
2022-11-27T03:30:25.155Z,0.00
2022-11-27T03:31:26.059Z,0.00
2022-11-27T03:32:26.928Z,0.00
2022-11-27T03:33:27.811Z,0.00
2022-11-27T03:34:28.703Z,0.00
2022-11-27T03:35:29.584Z,0.00
2022-11-27T03:36:30.458Z,0.00
2022-11-27T03:37:31.342Z,0.00
2022-11-27T03:38:32.215Z,0.00
2022-11-27T03:39:33.108Z,0.00
2022-11-27T03:40:33.982Z,0.00
2022-11-27T03:41:34.865Z,0.00
2022-11-27T03:42:35.749Z,0.00
2022-11-27T03:43:36.745Z,0.00
2022-11-27T03:44:37.672Z,0.00
2022-11-27T03:45:38.040Z,0.00
2022-11-27T03:46:38.973Z,0.00
2022-11-27T03:47:39.871Z,0.00
2022-11-27T03:48:40.711Z,0.00
2022-11-27T03:49:41.602Z,0.00
2022-11-27T03:50:42.477Z,0.00
2022-11-27T03:51:43.365Z,0.00
2022-11-27T03:52:44.292Z,0.00
2022-11-27T03:53:45.129Z,0.00
2022-11-27T03:54:46.027Z,0.00
2022-11-27T03:55:46.910Z,0.00
2022-11-27T03:56:47.795Z,0.00
2022-11-27T03:57:48.678Z,0.00
2022-11-27T03:58:49.667Z,0.00
2022-11-27T03:59:50.505Z,0.00
2022-11-27T04:00:51.380Z,0.00
2022-11-27T04:01:52.309Z,0.00
2022-11-27T04:02:53.162Z,0.00
2022-11-27T04:03:54.100Z,0.00
2022-11-27T04:04:54.959Z,0.00
2022-11-27T04:05:55.839Z,0.00
2022-11-27T04:06:56.725Z,0.00
2022-11-27T04:07:57.700Z,0.00
2022-11-27T04:08:58.556Z,0.00
2022-11-27T04:09:59.444Z,0.00
2022-11-27T04:11:00.317Z,0.00
2022-11-27T04:12:01.200Z,0.00
2022-11-27T04:13:02.088Z,0.00
2022-11-27T04:14:03.085Z,0.00
2022-11-27T04:15:03.911Z,0.00
2022-11-27T04:16:04.847Z,0.00
2022-11-27T04:17:05.699Z,0.00
2022-11-27T04:18:06.578Z,0.00
2022-11-27T04:19:07.453Z,0.00
2022-11-27T04:20:08.346Z,0.00
2022-11-27T04:21:09.220Z,0.00
2022-11-27T04:22:10.103Z,0.00
2022-11-27T04:23:10.987Z,0.00
2022-11-27T04:24:11.871Z,0.00
2022-11-27T04:25:12.754Z,0.00
2022-11-27T04:26:13.636Z,0.00
2022-11-27T04:27:14.520Z,0.00
2022-11-27T04:28:15.403Z,0.00
2022-11-27T04:29:16.397Z,0.00
2022-11-27T04:30:17.221Z,0.00
2022-11-27T04:31:18.119Z,0.00
2022-11-27T04:32:18.977Z,0.00
2022-11-27T04:33:19.851Z,0.00
2022-11-27T04:34:20.741Z,0.00
2022-11-27T04:35:21.645Z,0.00
2022-11-27T04:36:22.548Z,0.00
2022-11-27T04:37:23.435Z,0.00
2022-11-27T04:38:24.320Z,0.00
2022-11-27T04:39:25.200Z,0.00
2022-11-27T04:40:26.091Z,0.00
2022-11-27T04:41:26.976Z,0.00
2022-11-27T04:42:27.859Z,0.00
2022-11-27T04:43:28.737Z,0.00
2022-11-27T04:44:29.724Z,0.00
2022-11-27T04:45:30.536Z,0.00
2022-11-27T04:46:31.465Z,0.00
2022-11-27T04:47:32.314Z,0.00
2022-11-27T04:48:33.196Z,0.00
2022-11-27T04:49:34.069Z,0.00
2022-11-27T04:50:34.961Z,0.00
2022-11-27T04:51:35.838Z,0.00
2022-11-27T04:52:36.718Z,0.00
2022-11-27T04:53:37.595Z,0.00
2022-11-27T04:54:38.778Z,0.00
2022-11-27T04:55:39.278Z,0.00
2022-11-27T04:56:40.160Z,0.00
2022-11-27T04:57:41.046Z,0.00
2022-11-27T04:58:41.928Z,0.00
2022-11-27T04:59:42.915Z,0.00
2022-11-27T05:00:43.941Z,0.00
2022-11-27T05:01:44.331Z,0.00
2022-11-27T05:02:45.307Z,0.00
2022-11-27T05:03:46.158Z,0.00
2022-11-27T05:04:47.040Z,0.00
2022-11-27T05:05:47.935Z,0.00
2022-11-27T05:06:48.818Z,0.00
2022-11-27T05:07:49.734Z,0.00
2022-11-27T05:08:50.575Z,0.00
2022-11-27T05:09:51.458Z,0.00
2022-11-27T05:10:52.342Z,0.00
2022-11-27T05:11:53.214Z,0.00
2022-11-27T05:12:54.097Z,0.00
2022-11-27T05:13:54.981Z,0.00
2022-11-27T05:14:55.981Z,0.00
2022-11-27T05:15:56.916Z,0.00
2022-11-27T05:16:57.733Z,0.00
2022-11-27T05:17:58.616Z,0.00
2022-11-27T05:18:59.500Z,0.00
2022-11-27T05:20:00.373Z,0.00
2022-11-27T05:21:01.265Z,0.00
2022-11-27T05:22:02.140Z,0.00
2022-11-27T05:23:03.027Z,0.00
2022-11-27T05:24:03.907Z,0.00
2022-11-27T05:25:04.790Z,0.00
2022-11-27T05:26:05.676Z,0.00
2022-11-27T05:27:06.560Z,0.00
2022-11-27T05:28:07.431Z,0.00
2022-11-27T05:29:08.312Z,0.00
2022-11-27T05:30:09.315Z,0.00
2022-11-27T05:31:10.304Z,0.00
2022-11-27T05:32:10.621Z,0.00
2022-11-27T05:33:11.503Z,0.00
2022-11-27T05:34:12.388Z,0.00
2022-11-27T05:35:13.269Z,0.00
2022-11-27T05:36:14.176Z,0.00
2022-11-27T05:37:19.223Z,0.00
2022-11-27T05:38:15.894Z,0.00
2022-11-27T05:39:16.778Z,0.00
2022-11-27T05:40:17.662Z,0.00
2022-11-27T05:41:18.554Z,0.00
2022-11-27T05:42:19.438Z,0.00
2022-11-27T05:43:20.322Z,0.00
2022-11-27T05:44:21.210Z,0.00
2022-11-27T05:45:27.971Z,0.00
2022-11-27T05:46:24.082Z,0.00
2022-11-27T05:47:23.411Z,0.00
2022-11-27T05:48:24.284Z,0.00
2022-11-27T05:49:25.167Z,0.00
2022-11-27T05:50:26.041Z,0.00
2022-11-27T05:51:26.932Z,0.00
2022-11-27T05:52:27.817Z,0.00
2022-11-27T05:53:28.699Z,0.00
2022-11-27T05:54:29.615Z,0.00
2022-11-27T05:55:30.499Z,0.00
2022-11-27T05:56:31.392Z,0.00
2022-11-27T05:57:32.275Z,0.00
2022-11-27T05:58:33.162Z,0.00
2022-11-27T05:59:34.042Z,0.00
2022-11-27T06:00:34.920Z,0.00
2022-11-27T06:01:35.961Z,0.00
2022-11-27T06:02:36.403Z,0.00
2022-11-27T06:03:37.358Z,0.00
2022-11-27T06:04:38.494Z,0.00
2022-11-27T06:05:39.050Z,0.00
2022-11-27T06:06:39.945Z,0.00
2022-11-27T06:07:40.885Z,1.00
2022-11-27T06:08:41.713Z,1.00
2022-11-27T06:09:42.595Z,0.00
2022-11-27T06:10:43.476Z,0.00
2022-11-27T06:11:44.364Z,0.00
2022-11-27T06:12:45.238Z,0.00
2022-11-27T06:13:46.122Z,0.00
2022-11-27T06:14:46.955Z,1.00
2022-11-27T06:15:47.783Z,1.00
2022-11-27T06:16:48.894Z,1.00
2022-11-27T06:17:49.190Z,1.00
2022-11-27T06:18:50.010Z,1.00
2022-11-27T06:19:50.838Z,2.00
2022-11-27T06:20:53.090Z,2.00
2022-11-27T06:21:52.497Z,3.00
2022-11-27T06:22:53.329Z,3.00
2022-11-27T06:23:54.158Z,3.00
2022-11-27T06:24:54.994Z,3.00
2022-11-27T06:25:55.824Z,4.00
2022-11-27T06:26:56.670Z,4.00
2022-11-27T06:27:57.499Z,7.00
2022-11-27T06:28:58.332Z,7.00
2022-11-27T06:29:59.158Z,12.00
2022-11-27T06:30:59.978Z,9.00
2022-11-27T06:32:01.006Z,11.00
2022-11-27T06:33:01.305Z,14.00
2022-11-27T06:34:02.132Z,16.00
2022-11-27T06:35:02.963Z,16.00
2022-11-27T06:36:03.792Z,14.00
2022-11-27T06:37:05.453Z,19.00
2022-11-27T06:38:05.279Z,24.00
2022-11-27T06:39:06.114Z,25.00
2022-11-27T06:40:06.945Z,25.00
2022-11-27T06:41:07.762Z,24.00
2022-11-27T06:42:08.600Z,27.00
2022-11-27T06:43:09.420Z,33.00
2022-11-27T06:44:10.249Z,33.00
2022-11-27T06:45:11.071Z,34.00
2022-11-27T06:46:11.953Z,36.00
2022-11-27T06:47:12.889Z,37.00
2022-11-27T06:48:13.645Z,38.00
2022-11-27T06:49:14.479Z,40.00
2022-11-27T06:50:15.309Z,41.00
2022-11-27T06:51:16.139Z,46.00
2022-11-27T06:52:16.990Z,48.00
2022-11-27T06:53:17.819Z,50.00
2022-11-27T06:54:18.649Z,52.00
2022-11-27T06:55:19.480Z,54.00
2022-11-27T06:56:20.300Z,56.00
2022-11-27T06:57:21.140Z,60.00
2022-11-27T06:58:24.365Z,66.00
2022-11-27T06:59:23.681Z,64.00
2022-11-27T07:00:23.512Z,67.00
2022-11-27T07:01:24.430Z,72.00
2022-11-27T07:02:25.471Z,77.00
2022-11-27T07:03:25.789Z,80.00
2022-11-27T07:04:26.616Z,85.00
2022-11-27T07:05:27.445Z,85.00
2022-11-27T07:06:28.296Z,86.00
2022-11-27T07:07:29.214Z,88.00
2022-11-27T07:08:29.973Z,93.00
2022-11-27T07:09:30.802Z,95.00
2022-11-27T07:10:31.624Z,96.00
2022-11-27T07:11:32.451Z,98.00
2022-11-27T07:12:33.281Z,102.00
2022-11-27T07:13:34.109Z,101.00
2022-11-27T07:14:34.947Z,99.00
2022-11-27T07:15:35.773Z,101.00
2022-11-27T07:16:36.667Z,102.00
2022-11-27T07:17:37.585Z,102.00
2022-11-27T07:18:38.412Z,102.00
2022-11-27T07:19:39.227Z,108.00
2022-11-27T07:20:40.049Z,113.00
2022-11-27T07:21:40.878Z,113.00
2022-11-27T07:22:41.724Z,114.00
2022-11-27T07:23:42.560Z,116.00
2022-11-27T07:24:43.408Z,118.00
2022-11-27T07:25:44.244Z,118.00
2022-11-27T07:26:45.081Z,121.00
2022-11-27T07:27:45.916Z,121.00
2022-11-27T07:28:46.747Z,122.00
2022-11-27T07:29:47.577Z,123.00
2022-11-27T07:30:48.396Z,124.00
2022-11-27T07:31:49.533Z,123.00
2022-11-27T07:32:49.999Z,124.00
2022-11-27T07:33:50.751Z,127.00
2022-11-27T07:34:51.571Z,129.00
2022-11-27T07:35:52.400Z,131.00
2022-11-27T07:36:53.221Z,133.00
2022-11-27T07:37:54.060Z,132.00
2022-11-27T07:38:54.882Z,137.00
2022-11-27T07:40:02.628Z,140.00
2022-11-27T07:40:57.426Z,142.00
2022-11-27T07:42:00.017Z,144.00
2022-11-27T07:42:58.981Z,143.00
2022-11-27T07:43:58.810Z,144.00
2022-11-27T07:44:59.677Z,144.00
2022-11-27T07:46:00.583Z,145.00
2022-11-27T07:47:01.341Z,146.00
2022-11-27T07:48:02.292Z,146.00
2022-11-27T07:49:03.094Z,146.00
2022-11-27T07:50:03.928Z,144.00
2022-11-27T07:51:04.745Z,145.00
2022-11-27T07:52:05.576Z,144.00
2022-11-27T07:53:06.416Z,146.00
2022-11-27T07:54:07.428Z,147.00
2022-11-27T07:55:07.792Z,147.00
2022-11-27T07:56:08.600Z,147.00
2022-11-27T07:57:09.421Z,143.00
2022-11-27T07:58:10.268Z,146.00
2022-11-27T07:59:11.090Z,146.00
2022-11-27T08:00:11.921Z,147.00
2022-11-27T08:01:12.778Z,147.00
2022-11-27T08:02:13.570Z,147.00
2022-11-27T08:03:14.509Z,147.00
2022-11-27T08:04:15.327Z,147.00
2022-11-27T08:05:16.177Z,147.00
2022-11-27T08:06:16.977Z,149.00
2022-11-27T08:07:17.823Z,151.00
2022-11-27T08:08:18.635Z,151.00
2022-11-27T08:09:19.487Z,150.00
2022-11-27T08:10:20.315Z,150.00
2022-11-27T08:11:21.155Z,150.00
2022-11-27T08:12:21.983Z,153.00
2022-11-27T08:13:22.825Z,155.00
2022-11-27T08:14:23.655Z,154.00
2022-11-27T08:15:24.475Z,159.00
2022-11-27T08:16:25.423Z,162.00
2022-11-27T08:17:26.286Z,147.00
2022-11-27T08:18:27.240Z,140.00
2022-11-27T08:19:27.993Z,153.00
2022-11-27T08:20:28.826Z,172.00
2022-11-27T08:21:29.652Z,172.00
2022-11-27T08:22:30.487Z,173.00
2022-11-27T08:23:31.326Z,172.00
2022-11-27T08:24:32.156Z,174.00
2022-11-27T08:25:32.978Z,174.00
2022-11-27T08:26:33.807Z,175.00
2022-11-27T08:27:34.625Z,174.00
2022-11-27T08:28:35.464Z,181.00
2022-11-27T08:29:36.286Z,181.00
2022-11-27T08:30:37.124Z,179.00
2022-11-27T08:31:38.023Z,182.00
2022-11-27T08:32:38.793Z,178.00
2022-11-27T08:33:39.736Z,179.00
2022-11-27T08:34:40.887Z,174.00
2022-11-27T08:35:41.314Z,189.00
2022-11-27T08:36:42.153Z,177.00
2022-11-27T08:37:42.973Z,176.00
2022-11-27T08:38:43.811Z,176.00
2022-11-27T08:39:44.641Z,174.00
2022-11-27T08:40:45.471Z,177.00
2022-11-27T08:41:46.291Z,176.00
2022-11-27T08:42:47.119Z,178.00
2022-11-27T08:43:47.961Z,180.00
2022-11-27T08:44:48.788Z,176.00
2022-11-27T08:45:49.681Z,176.00
2022-11-27T08:46:50.469Z,180.00
2022-11-27T08:47:51.290Z,176.00
2022-11-27T08:48:52.247Z,173.00
2022-11-27T08:49:53.003Z,182.00
2022-11-27T08:50:53.828Z,177.00
2022-11-27T08:51:54.649Z,182.00
2022-11-27T08:52:55.478Z,184.00
2022-11-27T08:53:56.307Z,185.00
2022-11-27T08:54:58.039Z,183.00
2022-11-27T08:55:57.938Z,182.00
2022-11-27T08:56:58.768Z,186.00
2022-11-27T08:57:59.587Z,186.00
2022-11-27T08:59:00.427Z,187.00
2022-11-27T09:00:01.254Z,187.00
2022-11-27T09:01:02.146Z,188.00
2022-11-27T09:02:02.938Z,189.00
2022-11-27T09:03:03.767Z,188.00
2022-11-27T09:04:04.833Z,188.00
2022-11-27T09:05:05.106Z,192.00
2022-11-27T09:06:05.938Z,187.00
2022-11-27T09:07:06.766Z,192.00
2022-11-27T09:08:07.591Z,195.00
2022-11-27T09:09:08.425Z,192.00
2022-11-27T09:10:09.247Z,186.00
2022-11-27T09:11:10.074Z,192.00
2022-11-27T09:12:10.900Z,211.00
2022-11-27T09:13:11.723Z,181.00
2022-11-27T09:14:12.552Z,202.00
2022-11-27T09:15:13.386Z,201.00
2022-11-27T09:16:14.279Z,202.00
2022-11-27T09:17:15.054Z,203.00
2022-11-27T09:18:15.873Z,208.00
2022-11-27T09:19:16.830Z,214.00
2022-11-27T09:20:17.582Z,218.00
2022-11-27T09:21:18.416Z,194.00
2022-11-27T09:22:19.235Z,205.00
2022-11-27T09:23:20.062Z,201.00
2022-11-27T09:24:20.893Z,203.00
2022-11-27T09:25:21.722Z,203.00
2022-11-27T09:26:22.540Z,197.00
2022-11-27T09:27:23.370Z,195.00
2022-11-27T09:28:29.837Z,190.00
2022-11-27T09:29:25.914Z,187.00
2022-11-27T09:30:25.750Z,183.00
2022-11-27T09:31:26.788Z,188.00
2022-11-27T09:32:27.225Z,200.00
2022-11-27T09:33:28.023Z,204.00
2022-11-27T09:34:31.296Z,208.00
2022-11-27T09:35:29.736Z,207.00
2022-11-27T09:36:30.513Z,207.00
2022-11-27T09:37:31.342Z,205.00
2022-11-27T09:38:32.162Z,214.00
2022-11-27T09:39:33.002Z,208.00
2022-11-27T09:40:33.822Z,205.00
2022-11-27T09:41:34.652Z,204.00
2022-11-27T09:42:35.474Z,205.00
2022-11-27T09:43:36.304Z,206.00
2022-11-27T09:44:37.134Z,211.00
2022-11-27T09:45:38.032Z,211.00
2022-11-27T09:46:38.832Z,204.00
2022-11-27T09:47:41.610Z,202.00
2022-11-27T09:48:40.195Z,201.00
2022-11-27T09:49:41.147Z,201.00
2022-11-27T09:50:41.904Z,200.00
2022-11-27T09:51:42.730Z,199.00
2022-11-27T09:52:43.551Z,199.00
2022-11-27T09:53:44.381Z,196.00
2022-11-27T09:54:50.857Z,198.00
2022-11-27T09:55:46.960Z,198.00
2022-11-27T09:56:46.782Z,197.00
2022-11-27T09:57:47.609Z,195.00
2022-11-27T09:58:48.430Z,196.00
2022-11-27T09:59:49.268Z,191.00
2022-11-27T10:00:50.091Z,192.00
2022-11-27T10:01:51.439Z,192.00
2022-11-27T10:02:52.016Z,185.00
2022-11-27T10:03:52.386Z,192.00
2022-11-27T10:05:15.022Z,191.00
2022-11-27T10:05:54.957Z,186.00
2022-11-27T10:06:54.779Z,186.00
2022-11-27T10:07:55.679Z,184.00
2022-11-27T10:08:56.525Z,188.00
2022-11-27T10:09:57.367Z,183.00
2022-11-27T10:10:58.195Z,178.00
2022-11-27T10:11:59.022Z,182.00
2022-11-27T10:12:59.870Z,178.00
2022-11-27T10:14:00.686Z,174.00
2022-11-27T10:15:01.551Z,173.00
2022-11-27T10:16:02.426Z,171.00
2022-11-27T10:17:03.270Z,167.00
2022-11-27T10:18:04.064Z,175.00
2022-11-27T10:19:04.885Z,171.00
2022-11-27T10:20:05.856Z,167.00
2022-11-27T10:21:06.606Z,163.00
2022-11-27T10:22:07.435Z,161.00
2022-11-27T10:23:08.257Z,162.00
2022-11-27T10:24:09.084Z,160.00
2022-11-27T10:25:09.915Z,156.00
2022-11-27T10:26:10.745Z,153.00
2022-11-27T10:27:11.565Z,156.00
2022-11-27T10:28:12.397Z,161.00
2022-11-27T10:29:13.228Z,157.00
2022-11-27T10:30:14.083Z,155.00
2022-11-27T10:31:14.975Z,155.00
2022-11-27T10:32:46.677Z,152.00
2022-11-27T10:33:17.477Z,150.00
2022-11-27T10:34:17.308Z,149.00
2022-11-27T10:35:18.276Z,146.00
2022-11-27T10:36:19.037Z,146.00
2022-11-27T10:37:19.854Z,148.00
2022-11-27T10:38:20.681Z,146.00
2022-11-27T10:39:21.503Z,143.00
2022-11-27T10:40:22.362Z,148.00
2022-11-27T10:41:51.035Z,149.00
2022-11-27T10:42:24.898Z,143.00
2022-11-27T10:43:24.730Z,142.00
2022-11-27T10:44:25.546Z,143.00
2022-11-27T10:45:26.373Z,143.00
2022-11-27T10:46:27.334Z,139.00
2022-11-27T10:47:32.293Z,137.00
2022-11-27T10:48:29.862Z,141.00
2022-11-27T10:49:29.676Z,141.00
2022-11-27T10:50:30.640Z,138.00
2022-11-27T10:51:31.388Z,139.00
2022-11-27T10:52:32.217Z,139.00
2022-11-27T10:53:33.038Z,141.00
2022-11-27T10:54:33.866Z,138.00
2022-11-27T10:55:34.694Z,136.00
2022-11-27T10:56:35.523Z,136.00
2022-11-27T10:57:36.345Z,137.00
2022-11-27T10:58:37.173Z,137.00
2022-11-27T10:59:37.992Z,135.00
2022-11-27T11:00:38.831Z,136.00
2022-11-27T11:01:39.697Z,135.00
2022-11-27T11:02:40.538Z,133.00
2022-11-27T11:03:41.330Z,136.00
2022-11-27T11:04:42.160Z,135.00
2022-11-27T11:06:11.994Z,132.00
2022-11-27T11:06:44.716Z,134.00
2022-11-27T11:07:44.593Z,133.00
2022-11-27T11:08:45.390Z,131.00
2022-11-27T11:09:46.216Z,132.00
2022-11-27T11:10:47.048Z,132.00
2022-11-27T11:11:47.879Z,131.00
2022-11-27T11:12:48.699Z,128.00
2022-11-27T11:13:49.526Z,132.00
2022-11-27T11:14:50.347Z,129.00
2022-11-27T11:15:51.904Z,129.00
2022-11-27T11:16:51.857Z,128.00
2022-11-27T11:17:52.669Z,128.00
2022-11-27T11:18:53.490Z,131.00
2022-11-27T11:19:54.318Z,127.00
2022-11-27T11:20:55.265Z,126.00
2022-11-27T11:21:56.019Z,125.00
2022-11-27T11:22:56.839Z,127.00
2022-11-27T11:23:57.669Z,124.00
2022-11-27T11:24:58.488Z,125.00
2022-11-27T11:25:59.326Z,125.00
2022-11-27T11:27:00.152Z,124.00
2022-11-27T11:28:00.979Z,124.00
2022-11-27T11:29:01.797Z,126.00
2022-11-27T11:30:02.638Z,127.00
2022-11-27T11:31:03.457Z,125.00
2022-11-27T11:32:04.323Z,122.00
2022-11-27T11:33:05.129Z,124.00
2022-11-27T11:34:05.956Z,122.00
2022-11-27T11:35:06.777Z,126.00
2022-11-27T11:36:07.731Z,124.00
2022-11-27T11:37:08.480Z,122.00
2022-11-27T11:38:09.320Z,124.00
2022-11-27T11:39:10.127Z,125.00
2022-11-27T11:40:14.894Z,123.00
2022-11-27T11:41:12.680Z,122.00
2022-11-27T11:42:12.511Z,122.00
2022-11-27T11:43:13.335Z,122.00
2022-11-27T11:44:14.160Z,125.00
2022-11-27T11:45:14.980Z,122.00
2022-11-27T11:46:15.902Z,121.00
2022-11-27T11:47:16.690Z,122.00
2022-11-27T11:48:17.524Z,119.00
2022-11-27T11:49:18.338Z,120.00
2022-11-27T11:50:19.170Z,126.00
2022-11-27T11:51:21.875Z,123.00
2022-11-27T11:52:20.541Z,121.00
2022-11-27T11:53:21.369Z,122.00
2022-11-27T11:54:22.198Z,122.00
2022-11-27T11:55:23.030Z,121.00
2022-11-27T11:56:23.867Z,121.00
2022-11-27T11:57:24.688Z,121.00
2022-11-27T11:58:25.516Z,119.00
2022-11-27T11:59:26.334Z,122.00
2022-11-27T12:00:30.936Z,121.00
2022-11-27T12:01:28.902Z,121.00
2022-11-27T12:02:28.780Z,121.00
2022-11-27T12:03:29.584Z,119.00
2022-11-27T12:04:30.461Z,117.00
2022-11-27T12:05:31.232Z,115.00
2022-11-27T12:06:32.185Z,116.00
2022-11-27T12:07:33.035Z,120.00
2022-11-27T12:08:33.840Z,119.00
2022-11-27T12:09:34.671Z,118.00
2022-11-27T12:10:35.501Z,119.00
2022-11-27T12:11:36.331Z,117.00
2022-11-27T12:12:37.157Z,119.00
2022-11-27T12:13:37.978Z,118.00
2022-11-27T12:14:39.125Z,120.00
2022-11-27T12:15:39.610Z,120.00
2022-11-27T12:16:40.497Z,120.00
2022-11-27T12:17:41.340Z,121.00
2022-11-27T12:18:42.169Z,116.00
2022-11-27T12:19:42.991Z,116.00
2022-11-27T12:20:43.823Z,120.00
2022-11-27T12:21:44.771Z,118.00
2022-11-27T12:22:45.526Z,120.00
2022-11-27T12:23:46.347Z,116.00
2022-11-27T12:24:47.191Z,121.00
2022-11-27T12:25:47.997Z,114.00
2022-11-27T12:26:48.835Z,116.00
2022-11-27T12:27:49.656Z,115.00
2022-11-27T12:28:55.946Z,115.00
2022-11-27T12:29:52.200Z,113.00
2022-11-27T12:30:52.030Z,114.00
2022-11-27T12:31:52.907Z,114.00
2022-11-27T12:32:53.701Z,115.00
2022-11-27T12:33:54.522Z,117.00
2022-11-27T12:34:55.351Z,115.00
2022-11-27T12:35:56.204Z,115.00
2022-11-27T12:36:57.156Z,113.00
2022-11-27T12:37:57.910Z,112.00
2022-11-27T12:38:58.751Z,112.00
2022-11-27T12:39:59.569Z,112.00
2022-11-27T12:41:00.389Z,112.00
2022-11-27T12:42:01.218Z,111.00
2022-11-27T12:43:02.048Z,111.00
2022-11-27T12:44:02.866Z,113.00
2022-11-27T12:45:03.696Z,114.00
2022-11-27T12:46:04.598Z,116.00
2022-11-27T12:47:05.374Z,117.00
2022-11-27T12:48:06.195Z,111.00
2022-11-27T12:49:07.025Z,112.00
2022-11-27T12:50:07.855Z,111.00
2022-11-27T12:51:08.674Z,110.00
2022-11-27T12:52:09.615Z,113.00
2022-11-27T12:53:10.364Z,114.00
2022-11-27T12:54:11.184Z,114.00
2022-11-27T12:55:12.013Z,113.00
2022-11-27T12:56:12.844Z,113.00
2022-11-27T12:57:13.682Z,113.00
2022-11-27T12:58:14.503Z,117.00
2022-11-27T12:59:15.331Z,112.00
2022-11-27T13:00:16.153Z,109.00
2022-11-27T13:01:17.074Z,109.00
2022-11-27T13:02:17.965Z,111.00
2022-11-27T13:03:18.752Z,109.00
2022-11-27T13:04:19.570Z,108.00